KHZE

Mercer County Regional Airport

Hazen, North Dakota, USA
METAR KHZE 181635Z AUTO 00000KT 10SM CLR 15/06 A3005 RMK AO2 TSNO
Observed Flight Rules
Oct-18 @ 16:35 UTC (8 minutes ago) Visual Flight Rules
Visibility Clouds
10 miles
  • Clear skies
Temperatures Readings
Current 15°C / 59°F
Dewpoint 6°C / 43°F
Humidity 55%
Altimeter 30.05" Hg
Pressure 1018 hPa
Elevation 553
METAR KHZE 181635Z AUTO 00000KT 10SM CLR 15/06 A3005 RMK AO2 TSNO
Observed Flight Rules
Oct-18 @ 16:35 UTC
(8 minutes ago)
VFR
Clouds
  • Clear skies
Temperature Dewpoint
15°C / 59°F 6°C / 43°F
Humidity Altimeter Pressure
55% 30.05" Hg 1018 hPa